Aeroporto :
LOGIN :

Iscrizione | Disclaimer

   EN    FR    IT 

 










Sommario :    VFR   VFR Marginale   IFR   IFR Intensivo   IFR Molto Intensivo
Visibilità : 
Base nubi : 
>= 8 km
>= 3000ft
5 / 8 km
1000 / 3000 ft
1500m / 5 km
500 / 1000 ft
800 / 1500m
200 / 500 ft
< 800m
< 200 ft
Simboli :   Temporali  Nebbia  Neve Forte  Precipitazioni Forti  Vento > 20 kt
SIGMETs :   Varie  Temporali  Ghiacco  Turbolenza  Onda orograficha  Ceneri Vulcaniche






- Altitudine del aeroporto : 796 ft
- Codice IATA : SYT


LFLN - Saint-Yan

ULTIMO METAR :
  • 041530Z AUTO 34003KT 5000 BR FEW008/// BKN021/// OVC030/// ///TCU 05/05 Q1010 TEMPO RA BKN007

METARs OBSOLETI :
  • 041500Z AUTO VRB03KT 4500 RA BR BKN010/// OVC028/// ///TCU 05/05 Q1010 TEMPO BKN007
  • 041430Z AUTO 35004KT 6000 RA OVC009/// ///CB 05/04 Q1009 TEMPO 4000 RA BKN007
  • 041400Z AUTO 33005KT 9000 OVC008/// //////TCU 05/04 Q1009 TEMPO 4000 RA BKN007
  • 041330Z AUTO VRB02KT 9999 BKN008/// OVC013/// //////CB 06/04 Q1009 TEMPO 4000 RA BKN007
  • 041300Z AUTO 12003KT 090V170 7000 -RA BKN009/// OVC041/// //////CB 06/04 Q1009 TEMPO 4000 RA BECMG FEW020 BKN060

TAF TAF LFLN
Valido dal 04 a 15 ore il 05 a 00 ore UTC


041400Z 0415/0424 15004KT 9000 FEW010 BKN030
PROB40
TEMPO 0415/0420 4000 RA BKN007
PROB30
TEMPO 0420/0424 1200 BR BKN010



MetMap, La meteo Aeronautica in un colpo d'occhio ! - Copyright ORBIFLY Dicembre 2007 - Disclaimer

ORBIFLY MET'MAP TEAM :

Programmazione e sviluppo : Alexandra Zaïnal
Concezione : Baudouin d'Aumeries
Supporto tecnico e logistico : Manuel Goepfert
Aiuto : Marc-Olivier Méhu
Aiuto per la traduzione : Arnaldo La Scala




FONTI E CREDITI :

   NOAA